sensor_id;sensor_type;location;lat;lon;timestamp;P1;durP1;ratioP1;P2;durP2;ratioP2
4986;SDS011;12674;51.500;7.552;2023-07-20T00:00:11;9.18;;;6.25;;
4986;SDS011;12674;51.500;7.552;2023-07-20T00:02:15;13.13;;;6.85;;
4986;SDS011;12674;51.500;7.552;2023-07-20T00:04:18;8.18;;;6.10;;
4986;SDS011;12674;51.500;7.552;2023-07-20T00:06:21;15.55;;;7.30;;
4986;SDS011;12674;51.500;7.552;2023-07-20T00:08:24;10.75;;;6.65;;
4986;SDS011;12674;51.500;7.552;2023-07-20T00:10:30;10.73;;;5.30;;
4986;SDS011;12674;51.500;7.552;2023-07-20T00:12:31;23.38;;;7.28;;
4986;SDS011;12674;51.500;7.552;2023-07-20T00:14:34;11.30;;;6.35;;
4986;SDS011;12674;51.500;7.552;2023-07-20T00:16:37;12.45;;;6.32;;
4986;SDS011;12674;51.500;7.552;2023-07-20T00:18:40;13.45;;;6.32;;
4986;SDS011;12674;51.500;7.552;2023-07-20T00:20:43;11.55;;;6.60;;
4986;SDS011;12674;51.500;7.552;2023-07-20T00:22:46;12.13;;;6.78;;
4986;SDS011;12674;51.500;7.552;2023-07-20T00:24:52;16.65;;;6.65;;
4986;SDS011;12674;51.500;7.552;2023-07-20T00:26:58;16.90;;;6.40;;
4986;SDS011;12674;51.500;7.552;2023-07-20T00:29:02;10.50;;;6.60;;
4986;SDS011;12674;51.500;7.552;2023-07-20T00:31:05;13.40;;;6.57;;
4986;SDS011;12674;51.500;7.552;2023-07-20T00:33:11;12.63;;;7.18;;
4986;SDS011;12674;51.500;7.552;2023-07-20T00:35:14;16.88;;;7.00;;
4986;SDS011;12674;51.500;7.552;2023-07-20T00:37:18;18.33;;;6.75;;
4986;SDS011;12674;51.500;7.552;2023-07-20T00:39:21;9.40;;;6.50;;
4986;SDS011;12674;51.500;7.552;2023-07-20T00:41:23;20.60;;;6.35;;
4986;SDS011;12674;51.500;7.552;2023-07-20T00:43:27;10.48;;;5.97;;
4986;SDS011;12674;51.500;7.552;2023-07-20T00:45:30;11.05;;;6.70;;
4986;SDS011;12674;51.500;7.552;2023-07-20T00:47:34;14.48;;;7.05;;
4986;SDS011;12674;51.500;7.552;2023-07-20T00:49:39;11.30;;;6.00;;
4986;SDS011;12674;51.500;7.552;2023-07-20T00:51:42;14.23;;;7.65;;
4986;SDS011;12674;51.500;7.552;2023-07-20T00:53:45;15.07;;;6.78;;
4986;SDS011;12674;51.500;7.552;2023-07-20T00:55:49;12.38;;;7.50;;
4986;SDS011;12674;51.500;7.552;2023-07-20T00:57:52;11.38;;;8.07;;
4986;SDS011;12674;51.500;7.552;2023-07-20T00:59:56;8.75;;;7.10;;
4986;SDS011;12674;51.500;7.552;2023-07-20T01:02:00;14.75;;;7.88;;
4986;SDS011;12674;51.500;7.552;2023-07-20T01:04:03;17.45;;;6.63;;
4986;SDS011;12674;51.500;7.552;2023-07-20T01:06:10;22.45;;;7.07;;
4986;SDS011;12674;51.500;7.552;2023-07-20T01:08:18;11.07;;;7.30;;
4986;SDS011;12674;51.500;7.552;2023-07-20T01:10:28;13.85;;;7.82;;
4986;SDS011;12674;51.500;7.552;2023-07-20T01:12:35;12.15;;;7.57;;
4986;SDS011;12674;51.500;7.552;2023-07-20T01:14:44;14.50;;;6.93;;
4986;SDS011;12674;51.500;7.552;2023-07-20T01:16:48;15.93;;;7.97;;
4986;SDS011;12674;51.500;7.552;2023-07-20T01:18:53;13.30;;;7.78;;
4986;SDS011;12674;51.500;7.552;2023-07-20T01:20:58;14.52;;;8.93;;
4986;SDS011;12674;51.500;7.552;2023-07-20T01:23:14;10.95;;;7.70;;
4986;SDS011;12674;51.500;7.552;2023-07-20T01:25:34;12.18;;;7.43;;
4986;SDS011;12674;51.500;7.552;2023-07-20T01:30:25;12.70;;;7.03;;
4986;SDS011;12674;51.500;7.552;2023-07-20T01:32:39;10.20;;;6.88;;
4986;SDS011;12674;51.500;7.552;2023-07-20T01:34:43;10.02;;;7.15;;
4986;SDS011;12674;51.500;7.552;2023-07-20T01:36:47;11.05;;;7.40;;
4986;SDS011;12674;51.500;7.552;2023-07-20T01:38:51;11.77;;;7.20;;
4986;SDS011;12674;51.500;7.552;2023-07-20T01:40:54;16.25;;;7.45;;
4986;SDS011;12674;51.500;7.552;2023-07-20T01:42:56;11.60;;;6.47;;
4986;SDS011;12674;51.500;7.552;2023-07-20T01:44:59;13.18;;;7.95;;
4986;SDS011;12674;51.500;7.552;2023-07-20T01:47:01;14.50;;;7.07;;
4986;SDS011;12674;51.500;7.552;2023-07-20T01:49:05;10.68;;;7.47;;
4986;SDS011;12674;51.500;7.552;2023-07-20T01:51:08;12.52;;;7.30;;
4986;SDS011;12674;51.500;7.552;2023-07-20T01:53:11;10.35;;;7.53;;
4986;SDS011;12674;51.500;7.552;2023-07-20T01:55:14;10.05;;;7.53;;
4986;SDS011;12674;51.500;7.552;2023-07-20T01:57:17;22.17;;;7.47;;
4986;SDS011;12674;51.500;7.552;2023-07-20T01:59:21;11.90;;;7.07;;
4986;SDS011;12674;51.500;7.552;2023-07-20T02:01:24;10.30;;;7.13;;
4986;SDS011;12674;51.500;7.552;2023-07-20T02:03:30;15.65;;;7.82;;
4986;SDS011;12674;51.500;7.552;2023-07-20T02:05:34;15.02;;;8.07;;
4986;SDS011;12674;51.500;7.552;2023-07-20T02:07:38;14.55;;;7.60;;
4986;SDS011;12674;51.500;7.552;2023-07-20T02:09:41;13.20;;;8.40;;
4986;SDS011;12674;51.500;7.552;2023-07-20T02:11:44;20.10;;;8.10;;
4986;SDS011;12674;51.500;7.552;2023-07-20T02:13:47;17.73;;;7.80;;
4986;SDS011;12674;51.500;7.552;2023-07-20T02:15:50;13.60;;;7.40;;
4986;SDS011;12674;51.500;7.552;2023-07-20T02:17:52;15.65;;;7.47;;
4986;SDS011;12674;51.500;7.552;2023-07-20T02:19:56;15.20;;;8.27;;
4986;SDS011;12674;51.500;7.552;2023-07-20T02:22:00;13.43;;;7.47;;
4986;SDS011;12674;51.500;7.552;2023-07-20T02:24:03;17.30;;;8.40;;
4986;SDS011;12674;51.500;7.552;2023-07-20T02:26:08;15.23;;;9.13;;
4986;SDS011;12674;51.500;7.552;2023-07-20T02:28:13;13.75;;;8.32;;
4986;SDS011;12674;51.500;7.552;2023-07-20T02:30:16;21.90;;;9.00;;
4986;SDS011;12674;51.500;7.552;2023-07-20T02:32:19;16.48;;;9.05;;
4986;SDS011;12674;51.500;7.552;2023-07-20T02:34:22;18.20;;;8.88;;
4986;SDS011;12674;51.500;7.552;2023-07-20T02:36:25;16.65;;;9.50;;
4986;SDS011;12674;51.500;7.552;2023-07-20T02:38:30;20.00;;;8.93;;
4986;SDS011;12674;51.500;7.552;2023-07-20T02:40:34;19.00;;;8.77;;
4986;SDS011;12674;51.500;7.552;2023-07-20T02:42:36;15.50;;;9.10;;
4986;SDS011;12674;51.500;7.552;2023-07-20T02:44:39;18.98;;;9.30;;
4986;SDS011;12674;51.500;7.552;2023-07-20T02:46:42;18.45;;;8.70;;
4986;SDS011;12674;51.500;7.552;2023-07-20T02:48:45;14.10;;;8.82;;
4986;SDS011;12674;51.500;7.552;2023-07-20T02:50:48;18.60;;;9.63;;
4986;SDS011;12674;51.500;7.552;2023-07-20T02:52:51;14.63;;;8.68;;
4986;SDS011;12674;51.500;7.552;2023-07-20T02:54:55;11.25;;;7.82;;
4986;SDS011;12674;51.500;7.552;2023-07-20T02:56:58;24.10;;;9.40;;
4986;SDS011;12674;51.500;7.552;2023-07-20T02:59:01;24.17;;;9.73;;
4986;SDS011;12674;51.500;7.552;2023-07-20T03:01:04;14.02;;;8.13;;
4986;SDS011;12674;51.500;7.552;2023-07-20T03:03:07;17.52;;;8.98;;
4986;SDS011;12674;51.500;7.552;2023-07-20T03:05:11;23.73;;;8.88;;
4986;SDS011;12674;51.500;7.552;2023-07-20T03:07:14;16.30;;;8.60;;
4986;SDS011;12674;51.500;7.552;2023-07-20T03:09:20;19.52;;;9.38;;
4986;SDS011;12674;51.500;7.552;2023-07-20T03:11:25;12.65;;;8.80;;
4986;SDS011;12674;51.500;7.552;2023-07-20T03:13:28;14.55;;;8.75;;
4986;SDS011;12674;51.500;7.552;2023-07-20T03:15:32;12.65;;;9.13;;
4986;SDS011;12674;51.500;7.552;2023-07-20T03:17:35;17.25;;;8.10;;
4986;SDS011;12674;51.500;7.552;2023-07-20T03:19:39;14.98;;;8.85;;
4986;SDS011;12674;51.500;7.552;2023-07-20T03:21:43;20.52;;;10.13;;
4986;SDS011;12674;51.500;7.552;2023-07-20T03:23:45;18.25;;;9.68;;
4986;SDS011;12674;51.500;7.552;2023-07-20T03:25:48;15.05;;;10.05;;
4986;SDS011;12674;51.500;7.552;2023-07-20T03:27:53;15.07;;;10.05;;
4986;SDS011;12674;51.500;7.552;2023-07-20T03:29:56;21.13;;;10.70;;
4986;SDS011;12674;51.500;7.552;2023-07-20T03:32:03;25.05;;;11.07;;
4986;SDS011;12674;51.500;7.552;2023-07-20T03:34:07;19.90;;;11.35;;
4986;SDS011;12674;51.500;7.552;2023-07-20T03:36:10;14.45;;;10.93;;
4986;SDS011;12674;51.500;7.552;2023-07-20T03:38:13;16.77;;;12.00;;
4986;SDS011;12674;51.500;7.552;2023-07-20T03:40:17;19.98;;;11.20;;
4986;SDS011;12674;51.500;7.552;2023-07-20T03:42:20;19.95;;;10.75;;
4986;SDS011;12674;51.500;7.552;2023-07-20T03:44:24;17.13;;;10.98;;
4986;SDS011;12674;51.500;7.552;2023-07-20T03:46:28;20.55;;;11.73;;
4986;SDS011;12674;51.500;7.552;2023-07-20T03:48:31;20.35;;;10.90;;
4986;SDS011;12674;51.500;7.552;2023-07-20T03:50:34;17.88;;;10.57;;
4986;SDS011;12674;51.500;7.552;2023-07-20T03:52:37;18.90;;;10.93;;
4986;SDS011;12674;51.500;7.552;2023-07-20T03:54:41;17.00;;;12.02;;
4986;SDS011;12674;51.500;7.552;2023-07-20T03:56:44;18.85;;;11.10;;
4986;SDS011;12674;51.500;7.552;2023-07-20T03:58:47;16.50;;;11.18;;
4986;SDS011;12674;51.500;7.552;2023-07-20T04:00:51;25.98;;;12.25;;
4986;SDS011;12674;51.500;7.552;2023-07-20T04:02:55;26.48;;;11.68;;
4986;SDS011;12674;51.500;7.552;2023-07-20T04:04:59;21.67;;;11.77;;
4986;SDS011;12674;51.500;7.552;2023-07-20T04:07:02;27.63;;;11.57;;
4986;SDS011;12674;51.500;7.552;2023-07-20T04:09:05;22.98;;;10.98;;
4986;SDS011;12674;51.500;7.552;2023-07-20T04:11:08;22.33;;;10.85;;
4986;SDS011;12674;51.500;7.552;2023-07-20T04:13:12;21.92;;;10.20;;
4986;SDS011;12674;51.500;7.552;2023-07-20T04:15:15;17.20;;;9.40;;
4986;SDS011;12674;51.500;7.552;2023-07-20T04:17:21;16.67;;;11.25;;
4986;SDS011;12674;51.500;7.552;2023-07-20T04:19:24;17.52;;;11.05;;
4986;SDS011;12674;51.500;7.552;2023-07-20T04:21:27;20.33;;;10.93;;
4986;SDS011;12674;51.500;7.552;2023-07-20T04:23:30;16.83;;;10.20;;
4986;SDS011;12674;51.500;7.552;2023-07-20T04:25:34;16.77;;;10.85;;
4986;SDS011;12674;51.500;7.552;2023-07-20T04:27:41;16.48;;;10.88;;
4986;SDS011;12674;51.500;7.552;2023-07-20T04:29:45;20.13;;;12.82;;
4986;SDS011;12674;51.500;7.552;2023-07-20T04:31:47;19.50;;;13.13;;
4986;SDS011;12674;51.500;7.552;2023-07-20T04:33:52;23.80;;;13.63;;
4986;SDS011;12674;51.500;7.552;2023-07-20T04:35:55;16.65;;;12.88;;
4986;SDS011;12674;51.500;7.552;2023-07-20T04:38:01;21.70;;;13.60;;
4986;SDS011;12674;51.500;7.552;2023-07-20T04:40:04;23.17;;;13.88;;
4986;SDS011;12674;51.500;7.552;2023-07-20T04:42:09;30.38;;;16.20;;
4986;SDS011;12674;51.500;7.552;2023-07-20T04:44:13;19.50;;;16.15;;
4986;SDS011;12674;51.500;7.552;2023-07-20T04:46:16;27.95;;;17.55;;
4986;SDS011;12674;51.500;7.552;2023-07-20T04:48:21;20.17;;;17.15;;
4986;SDS011;12674;51.500;7.552;2023-07-20T04:50:27;22.85;;;16.45;;
4986;SDS011;12674;51.500;7.552;2023-07-20T04:52:31;26.67;;;17.05;;
4986;SDS011;12674;51.500;7.552;2023-07-20T04:54:44;21.25;;;16.08;;
4986;SDS011;12674;51.500;7.552;2023-07-20T04:56:47;31.42;;;17.50;;
4986;SDS011;12674;51.500;7.552;2023-07-20T04:58:54;22.05;;;16.20;;
4986;SDS011;12674;51.500;7.552;2023-07-20T05:00:57;20.98;;;15.43;;
4986;SDS011;12674;51.500;7.552;2023-07-20T05:03:00;20.05;;;16.40;;
4986;SDS011;12674;51.500;7.552;2023-07-20T05:05:03;20.20;;;14.93;;
4986;SDS011;12674;51.500;7.552;2023-07-20T05:07:08;22.45;;;15.27;;
4986;SDS011;12674;51.500;7.552;2023-07-20T05:09:12;18.25;;;13.35;;
4986;SDS011;12674;51.500;7.552;2023-07-20T05:11:15;13.82;;;11.45;;
4986;SDS011;12674;51.500;7.552;2023-07-20T05:13:18;17.30;;;12.38;;
4986;SDS011;12674;51.500;7.552;2023-07-20T05:15:22;13.88;;;11.95;;
4986;SDS011;12674;51.500;7.552;2023-07-20T05:17:26;12.23;;;9.68;;
4986;SDS011;12674;51.500;7.552;2023-07-20T05:19:28;14.65;;;10.70;;
4986;SDS011;12674;51.500;7.552;2023-07-20T05:21:32;12.65;;;10.00;;
4986;SDS011;12674;51.500;7.552;2023-07-20T05:23:36;17.30;;;10.68;;
4986;SDS011;12674;51.500;7.552;2023-07-20T05:25:40;15.57;;;8.98;;
4986;SDS011;12674;51.500;7.552;2023-07-20T05:27:44;16.33;;;9.80;;
4986;SDS011;12674;51.500;7.552;2023-07-20T05:29:46;13.55;;;10.30;;
4986;SDS011;12674;51.500;7.552;2023-07-20T05:31:49;14.05;;;9.32;;
4986;SDS011;12674;51.500;7.552;2023-07-20T05:33:52;25.00;;;9.60;;
4986;SDS011;12674;51.500;7.552;2023-07-20T05:35:55;14.80;;;8.38;;
4986;SDS011;12674;51.500;7.552;2023-07-20T05:37:58;13.30;;;8.35;;
4986;SDS011;12674;51.500;7.552;2023-07-20T05:40:03;11.55;;;8.05;;
4986;SDS011;12674;51.500;7.552;2023-07-20T05:42:07;10.30;;;8.00;;
4986;SDS011;12674;51.500;7.552;2023-07-20T05:44:10;11.60;;;8.80;;
4986;SDS011;12674;51.500;7.552;2023-07-20T05:46:13;13.15;;;8.27;;
4986;SDS011;12674;51.500;7.552;2023-07-20T05:48:17;12.40;;;8.75;;
4986;SDS011;12674;51.500;7.552;2023-07-20T05:50:20;12.10;;;8.57;;
4986;SDS011;12674;51.500;7.552;2023-07-20T05:52:23;12.60;;;7.47;;
4986;SDS011;12674;51.500;7.552;2023-07-20T05:54:26;10.65;;;7.60;;
4986;SDS011;12674;51.500;7.552;2023-07-20T05:56:31;12.75;;;7.30;;
4986;SDS011;12674;51.500;7.552;2023-07-20T05:58:35;15.57;;;7.63;;
4986;SDS011;12674;51.500;7.552;2023-07-20T06:00:38;14.07;;;6.63;;
4986;SDS011;12674;51.500;7.552;2023-07-20T06:02:41;9.95;;;5.82;;
4986;SDS011;12674;51.500;7.552;2023-07-20T06:04:44;7.38;;;5.78;;
4986;SDS011;12674;51.500;7.552;2023-07-20T06:06:47;7.35;;;6.30;;
4986;SDS011;12674;51.500;7.552;2023-07-20T06:08:50;6.90;;;6.20;;
4986;SDS011;12674;51.500;7.552;2023-07-20T06:10:53;7.95;;;4.55;;
4986;SDS011;12674;51.500;7.552;2023-07-20T06:12:58;6.28;;;5.20;;
4986;SDS011;12674;51.500;7.552;2023-07-20T06:15:02;8.93;;;5.47;;
4986;SDS011;12674;51.500;7.552;2023-07-20T06:17:05;7.35;;;4.95;;
4986;SDS011;12674;51.500;7.552;2023-07-20T06:19:08;7.28;;;4.90;;
4986;SDS011;12674;51.500;7.552;2023-07-20T06:21:12;10.23;;;6.55;;
4986;SDS011;12674;51.500;7.552;2023-07-20T06:23:15;10.02;;;6.25;;
4986;SDS011;12674;51.500;7.552;2023-07-20T06:25:18;10.25;;;6.50;;
4986;SDS011;12674;51.500;7.552;2023-07-20T06:27:22;6.95;;;5.53;;
4986;SDS011;12674;51.500;7.552;2023-07-20T06:29:27;7.47;;;6.68;;
4986;SDS011;12674;51.500;7.552;2023-07-20T06:31:31;14.13;;;5.55;;
4986;SDS011;12674;51.500;7.552;2023-07-20T06:33:34;10.65;;;6.38;;
4986;SDS011;12674;51.500;7.552;2023-07-20T06:35:37;9.85;;;7.07;;
4986;SDS011;12674;51.500;7.552;2023-07-20T06:37:40;7.70;;;5.95;;
4986;SDS011;12674;51.500;7.552;2023-07-20T06:39:43;6.70;;;5.82;;
4986;SDS011;12674;51.500;7.552;2023-07-20T06:41:49;7.72;;;5.72;;
4986;SDS011;12674;51.500;7.552;2023-07-20T06:43:55;7.53;;;5.78;;
4986;SDS011;12674;51.500;7.552;2023-07-20T06:46:01;8.15;;;6.43;;
4986;SDS011;12674;51.500;7.552;2023-07-20T06:48:04;8.20;;;5.65;;
4986;SDS011;12674;51.500;7.552;2023-07-20T06:50:07;9.25;;;6.15;;
4986;SDS011;12674;51.500;7.552;2023-07-20T06:52:18;9.63;;;5.90;;
4986;SDS011;12674;51.500;7.552;2023-07-20T06:54:21;6.18;;;4.88;;
4986;SDS011;12674;51.500;7.552;2023-07-20T06:56:24;6.45;;;4.68;;
4986;SDS011;12674;51.500;7.552;2023-07-20T06:58:33;6.93;;;5.07;;
4986;SDS011;12674;51.500;7.552;2023-07-20T07:00:38;5.95;;;4.40;;
4986;SDS011;12674;51.500;7.552;2023-07-20T07:02:42;4.47;;;3.95;;
4986;SDS011;12674;51.500;7.552;2023-07-20T07:04:49;4.18;;;3.55;;
4986;SDS011;12674;51.500;7.552;2023-07-20T07:07:01;3.90;;;2.92;;
4986;SDS011;12674;51.500;7.552;2023-07-20T07:09:06;5.00;;;2.40;;
4986;SDS011;12674;51.500;7.552;2023-07-20T07:11:11;3.47;;;2.50;;
4986;SDS011;12674;51.500;7.552;2023-07-20T07:13:14;4.60;;;2.67;;
4986;SDS011;12674;51.500;7.552;2023-07-20T07:15:19;4.63;;;3.67;;
4986;SDS011;12674;51.500;7.552;2023-07-20T07:17:22;6.35;;;4.28;;
4986;SDS011;12674;51.500;7.552;2023-07-20T07:19:27;5.28;;;4.10;;
4986;SDS011;12674;51.500;7.552;2023-07-20T07:21:31;5.35;;;4.80;;
4986;SDS011;12674;51.500;7.552;2023-07-20T07:23:35;8.63;;;5.20;;
4986;SDS011;12674;51.500;7.552;2023-07-20T07:25:38;5.93;;;5.32;;
4986;SDS011;12674;51.500;7.552;2023-07-20T07:27:41;5.57;;;5.07;;
4986;SDS011;12674;51.500;7.552;2023-07-20T07:29:44;4.90;;;4.50;;
4986;SDS011;12674;51.500;7.552;2023-07-20T07:31:47;5.25;;;4.80;;
4986;SDS011;12674;51.500;7.552;2023-07-20T07:33:50;6.53;;;5.63;;
4986;SDS011;12674;51.500;7.552;2023-07-20T07:35:55;5.88;;;5.28;;
4986;SDS011;12674;51.500;7.552;2023-07-20T07:38:01;6.10;;;5.05;;
4986;SDS011;12674;51.500;7.552;2023-07-20T07:40:24;7.25;;;4.63;;
4986;SDS011;12674;51.500;7.552;2023-07-20T07:42:28;5.65;;;4.30;;
4986;SDS011;12674;51.500;7.552;2023-07-20T07:44:30;4.15;;;3.40;;
4986;SDS011;12674;51.500;7.552;2023-07-20T07:46:33;5.63;;;3.00;;
4986;SDS011;12674;51.500;7.552;2023-07-20T07:48:36;5.03;;;2.10;;
4986;SDS011;12674;51.500;7.552;2023-07-20T07:50:39;2.50;;;2.10;;
4986;SDS011;12674;51.500;7.552;2023-07-20T07:52:43;2.63;;;1.75;;
4986;SDS011;12674;51.500;7.552;2023-07-20T07:54:46;2.00;;;1.80;;
4986;SDS011;12674;51.500;7.552;2023-07-20T07:56:48;2.33;;;2.13;;
4986;SDS011;12674;51.500;7.552;2023-07-20T07:58:52;8.60;;;2.78;;
4986;SDS011;12674;51.500;7.552;2023-07-20T08:00:54;3.03;;;2.00;;
4986;SDS011;12674;51.500;7.552;2023-07-20T08:02:57;2.38;;;1.92;;
4986;SDS011;12674;51.500;7.552;2023-07-20T08:05:02;5.82;;;1.55;;
4986;SDS011;12674;51.500;7.552;2023-07-20T08:07:05;2.45;;;1.75;;
4986;SDS011;12674;51.500;7.552;2023-07-20T08:09:09;2.20;;;1.63;;
4986;SDS011;12674;51.500;7.552;2023-07-20T08:11:12;2.88;;;2.67;;
4986;SDS011;12674;51.500;7.552;2023-07-20T08:13:16;3.22;;;3.00;;
4986;SDS011;12674;51.500;7.552;2023-07-20T08:15:19;5.40;;;3.90;;
4986;SDS011;12674;51.500;7.552;2023-07-20T08:17:22;3.80;;;3.45;;
4986;SDS011;12674;51.500;7.552;2023-07-20T08:19:26;4.80;;;3.08;;
4986;SDS011;12674;51.500;7.552;2023-07-20T08:21:29;2.95;;;2.67;;
4986;SDS011;12674;51.500;7.552;2023-07-20T08:23:32;3.30;;;2.90;;
4986;SDS011;12674;51.500;7.552;2023-07-20T08:25:37;5.13;;;3.40;;
4986;SDS011;12674;51.500;7.552;2023-07-20T08:27:42;3.67;;;1.75;;
4986;SDS011;12674;51.500;7.552;2023-07-20T08:29:48;3.03;;;2.30;;
4986;SDS011;12674;51.500;7.552;2023-07-20T08:31:52;4.13;;;1.55;;
4986;SDS011;12674;51.500;7.552;2023-07-20T08:33:55;2.35;;;1.85;;
4986;SDS011;12674;51.500;7.552;2023-07-20T08:35:59;4.95;;;1.88;;
4986;SDS011;12674;51.500;7.552;2023-07-20T08:38:03;2.83;;;1.65;;
4986;SDS011;12674;51.500;7.552;2023-07-20T08:40:06;2.58;;;1.40;;
4986;SDS011;12674;51.500;7.552;2023-07-20T08:42:12;3.78;;;1.52;;
4986;SDS011;12674;51.500;7.552;2023-07-20T08:44:17;2.75;;;1.58;;
4986;SDS011;12674;51.500;7.552;2023-07-20T08:46:20;6.15;;;1.70;;
4986;SDS011;12674;51.500;7.552;2023-07-20T08:48:23;6.78;;;1.58;;
4986;SDS011;12674;51.500;7.552;2023-07-20T08:50:26;3.53;;;1.70;;
4986;SDS011;12674;51.500;7.552;2023-07-20T08:52:30;7.30;;;1.65;;
4986;SDS011;12674;51.500;7.552;2023-07-20T08:54:36;3.40;;;1.77;;
4986;SDS011;12674;51.500;7.552;2023-07-20T08:56:39;1.95;;;1.45;;
4986;SDS011;12674;51.500;7.552;2023-07-20T08:58:44;5.55;;;2.03;;
4986;SDS011;12674;51.500;7.552;2023-07-20T09:00:48;3.38;;;1.60;;
4986;SDS011;12674;51.500;7.552;2023-07-20T09:02:53;7.32;;;1.92;;
4986;SDS011;12674;51.500;7.552;2023-07-20T09:04:56;3.75;;;1.50;;
4986;SDS011;12674;51.500;7.552;2023-07-20T09:07:00;10.57;;;2.00;;
4986;SDS011;12674;51.500;7.552;2023-07-20T09:09:04;2.25;;;1.77;;
4986;SDS011;12674;51.500;7.552;2023-07-20T09:11:08;3.95;;;2.20;;
4986;SDS011;12674;51.500;7.552;2023-07-20T09:13:18;3.33;;;1.77;;
4986;SDS011;12674;51.500;7.552;2023-07-20T09:15:23;2.00;;;1.67;;
4986;SDS011;12674;51.500;7.552;2023-07-20T09:17:26;3.22;;;1.70;;
4986;SDS011;12674;51.500;7.552;2023-07-20T09:19:30;3.20;;;1.50;;
4986;SDS011;12674;51.500;7.552;2023-07-20T09:21:34;2.90;;;1.30;;
4986;SDS011;12674;51.500;7.552;2023-07-20T09:23:37;3.25;;;1.40;;
4986;SDS011;12674;51.500;7.552;2023-07-20T09:25:41;2.30;;;1.17;;
4986;SDS011;12674;51.500;7.552;2023-07-20T09:27:44;2.50;;;1.10;;
4986;SDS011;12674;51.500;7.552;2023-07-20T09:29:48;4.88;;;1.52;;
4986;SDS011;12674;51.500;7.552;2023-07-20T09:32:03;3.38;;;1.05;;
4986;SDS011;12674;51.500;7.552;2023-07-20T09:34:07;5.30;;;1.42;;
4986;SDS011;12674;51.500;7.552;2023-07-20T09:36:10;1.65;;;0.88;;
4986;SDS011;12674;51.500;7.552;2023-07-20T09:38:34;0.85;;;0.60;;
4986;SDS011;12674;51.500;7.552;2023-07-20T09:40:57;1.20;;;0.90;;
4986;SDS011;12674;51.500;7.552;2023-07-20T09:43:02;3.78;;;1.05;;
4986;SDS011;12674;51.500;7.552;2023-07-20T09:45:09;1.17;;;0.90;;
4986;SDS011;12674;51.500;7.552;2023-07-20T09:47:14;3.17;;;1.10;;
4986;SDS011;12674;51.500;7.552;2023-07-20T09:49:28;4.20;;;1.02;;
4986;SDS011;12674;51.500;7.552;2023-07-20T09:51:51;3.33;;;0.98;;
4986;SDS011;12674;51.500;7.552;2023-07-20T09:53:55;1.38;;;0.80;;
4986;SDS011;12674;51.500;7.552;2023-07-20T09:55:58;1.65;;;1.40;;
4986;SDS011;12674;51.500;7.552;2023-07-20T09:58:01;1.30;;;1.00;;
4986;SDS011;12674;51.500;7.552;2023-07-20T10:00:06;3.35;;;0.93;;
4986;SDS011;12674;51.500;7.552;2023-07-20T10:02:19;1.23;;;0.80;;
4986;SDS011;12674;51.500;7.552;2023-07-20T10:04:23;1.88;;;0.80;;
4986;SDS011;12674;51.500;7.552;2023-07-20T10:06:27;1.20;;;0.82;;
4986;SDS011;12674;51.500;7.552;2023-07-20T10:08:31;1.08;;;0.65;;
4986;SDS011;12674;51.500;7.552;2023-07-20T10:10:40;1.52;;;0.63;;
4986;SDS011;12674;51.500;7.552;2023-07-20T10:12:44;1.45;;;0.88;;
4986;SDS011;12674;51.500;7.552;2023-07-20T10:14:52;0.95;;;0.88;;
4986;SDS011;12674;51.500;7.552;2023-07-20T10:17:03;1.77;;;0.85;;
4986;SDS011;12674;51.500;7.552;2023-07-20T10:19:11;1.63;;;0.70;;
4986;SDS011;12674;51.500;7.552;2023-07-20T10:21:19;1.38;;;0.70;;
4986;SDS011;12674;51.500;7.552;2023-07-20T10:25:30;2.13;;;0.70;;
4986;SDS011;12674;51.500;7.552;2023-07-20T10:27:34;0.93;;;0.75;;
4986;SDS011;12674;51.500;7.552;2023-07-20T10:29:36;2.03;;;0.80;;
4986;SDS011;12674;51.500;7.552;2023-07-20T10:31:40;1.65;;;0.70;;
4986;SDS011;12674;51.500;7.552;2023-07-20T10:33:43;1.08;;;0.70;;
4986;SDS011;12674;51.500;7.552;2023-07-20T10:35:52;6.18;;;0.70;;
4986;SDS011;12674;51.500;7.552;2023-07-20T10:37:59;1.88;;;1.00;;
4986;SDS011;12674;51.500;7.552;2023-07-20T10:42:33;1.20;;;0.70;;
4986;SDS011;12674;51.500;7.552;2023-07-20T10:44:36;2.83;;;0.88;;
4986;SDS011;12674;51.500;7.552;2023-07-20T10:46:43;1.30;;;0.77;;
4986;SDS011;12674;51.500;7.552;2023-07-20T10:49:00;1.33;;;0.90;;
4986;SDS011;12674;51.500;7.552;2023-07-20T10:51:12;3.38;;;0.70;;
4986;SDS011;12674;51.500;7.552;2023-07-20T10:53:17;0.80;;;0.60;;
4986;SDS011;12674;51.500;7.552;2023-07-20T10:55:21;2.15;;;0.80;;
4986;SDS011;12674;51.500;7.552;2023-07-20T10:57:25;2.28;;;0.85;;
4986;SDS011;12674;51.500;7.552;2023-07-20T10:59:38;0.88;;;0.73;;
4986;SDS011;12674;51.500;7.552;2023-07-20T11:01:41;4.18;;;1.42;;
4986;SDS011;12674;51.500;7.552;2023-07-20T11:03:48;1.50;;;1.00;;
4986;SDS011;12674;51.500;7.552;2023-07-20T11:05:55;1.88;;;0.98;;
4986;SDS011;12674;51.500;7.552;2023-07-20T11:08:04;1.75;;;0.80;;
4986;SDS011;12674;51.500;7.552;2023-07-20T11:10:12;1.10;;;0.90;;
4986;SDS011;12674;51.500;7.552;2023-07-20T11:12:19;2.03;;;0.90;;
4986;SDS011;12674;51.500;7.552;2023-07-20T11:14:23;1.60;;;0.82;;
4986;SDS011;12674;51.500;7.552;2023-07-20T11:16:32;1.30;;;0.80;;
4986;SDS011;12674;51.500;7.552;2023-07-20T11:18:38;2.65;;;0.80;;
4986;SDS011;12674;51.500;7.552;2023-07-20T11:20:42;2.35;;;0.98;;
4986;SDS011;12674;51.500;7.552;2023-07-20T11:22:45;2.70;;;0.93;;
4986;SDS011;12674;51.500;7.552;2023-07-20T11:24:50;2.10;;;0.90;;
4986;SDS011;12674;51.500;7.552;2023-07-20T11:26:57;2.45;;;0.90;;
4986;SDS011;12674;51.500;7.552;2023-07-20T11:29:01;3.53;;;0.90;;
4986;SDS011;12674;51.500;7.552;2023-07-20T11:31:10;1.55;;;0.95;;
4986;SDS011;12674;51.500;7.552;2023-07-20T11:33:17;1.35;;;0.85;;
4986;SDS011;12674;51.500;7.552;2023-07-20T11:35:20;1.58;;;0.88;;
4986;SDS011;12674;51.500;7.552;2023-07-20T11:37:22;1.25;;;0.75;;
4986;SDS011;12674;51.500;7.552;2023-07-20T11:39:25;4.93;;;0.80;;
4986;SDS011;12674;51.500;7.552;2023-07-20T11:41:30;1.35;;;0.90;;
4986;SDS011;12674;51.500;7.552;2023-07-20T11:43:33;1.90;;;1.05;;
4986;SDS011;12674;51.500;7.552;2023-07-20T11:45:38;7.22;;;1.05;;
4986;SDS011;12674;51.500;7.552;2023-07-20T11:47:42;2.45;;;1.15;;
4986;SDS011;12674;51.500;7.552;2023-07-20T11:49:45;1.40;;;0.88;;
4986;SDS011;12674;51.500;7.552;2023-07-20T11:51:50;0.80;;;0.77;;
4986;SDS011;12674;51.500;7.552;2023-07-20T11:53:53;2.60;;;1.00;;
4986;SDS011;12674;51.500;7.552;2023-07-20T11:55:57;1.05;;;0.70;;
4986;SDS011;12674;51.500;7.552;2023-07-20T11:58:04;1.50;;;1.10;;
4986;SDS011;12674;51.500;7.552;2023-07-20T12:00:08;3.22;;;0.70;;
4986;SDS011;12674;51.500;7.552;2023-07-20T12:02:13;4.90;;;1.10;;
4986;SDS011;12674;51.500;7.552;2023-07-20T12:04:16;1.83;;;0.90;;
4986;SDS011;12674;51.500;7.552;2023-07-20T12:06:22;1.73;;;0.80;;
4986;SDS011;12674;51.500;7.552;2023-07-20T12:08:29;4.82;;;1.17;;
4986;SDS011;12674;51.500;7.552;2023-07-20T12:10:33;1.95;;;0.93;;
4986;SDS011;12674;51.500;7.552;2023-07-20T12:12:37;3.45;;;1.30;;
4986;SDS011;12674;51.500;7.552;2023-07-20T12:14:43;1.10;;;0.90;;
4986;SDS011;12674;51.500;7.552;2023-07-20T12:16:52;1.20;;;0.80;;
4986;SDS011;12674;51.500;7.552;2023-07-20T12:19:02;1.10;;;0.80;;
4986;SDS011;12674;51.500;7.552;2023-07-20T12:21:06;6.68;;;1.05;;
4986;SDS011;12674;51.500;7.552;2023-07-20T12:23:09;1.17;;;0.90;;
4986;SDS011;12674;51.500;7.552;2023-07-20T12:25:13;1.60;;;0.88;;
4986;SDS011;12674;51.500;7.552;2023-07-20T12:27:17;1.27;;;1.00;;
4986;SDS011;12674;51.500;7.552;2023-07-20T12:29:20;3.15;;;1.08;;
4986;SDS011;12674;51.500;7.552;2023-07-20T12:31:24;1.48;;;1.00;;
4986;SDS011;12674;51.500;7.552;2023-07-20T12:33:28;3.05;;;1.10;;
4986;SDS011;12674;51.500;7.552;2023-07-20T12:35:30;2.15;;;0.95;;
4986;SDS011;12674;51.500;7.552;2023-07-20T12:37:33;0.80;;;0.70;;
4986;SDS011;12674;51.500;7.552;2023-07-20T12:39:36;1.95;;;0.95;;
4986;SDS011;12674;51.500;7.552;2023-07-20T12:41:40;1.60;;;1.10;;